createdAt,value
2022-09-15T00:30:30.742Z,0
2022-09-15T00:31:11.241Z,0
2022-09-15T00:31:51.698Z,0
2022-09-15T00:37:15.548Z,0
2022-09-15T00:37:56.044Z,0
2022-09-15T00:38:36.538Z,0
2022-09-15T00:39:17.062Z,0
2022-09-15T00:39:57.568Z,0
2022-09-15T00:40:37.995Z,0
2022-09-15T00:41:18.476Z,0
2022-09-15T00:41:59.017Z,0
2022-09-15T00:42:39.480Z,0
2022-09-15T00:43:19.962Z,0
2022-09-15T00:50:45.340Z,0
2022-09-15T00:51:25.853Z,0
2022-09-15T00:52:06.369Z,0
2022-09-15T00:52:46.861Z,0
2022-09-15T00:53:27.340Z,0
2022-09-15T00:54:07.819Z,0
2022-09-15T00:54:48.326Z,0
2022-09-15T00:55:28.811Z,0
2022-09-15T00:56:09.380Z,0
2022-09-15T00:56:49.874Z,0
2022-09-15T01:04:58.323Z,0
2022-09-15T01:05:36.082Z,0
2022-09-15T01:06:16.615Z,0
2022-09-15T01:06:57.027Z,0
2022-09-15T01:07:37.519Z,0
2022-09-15T01:08:17.986Z,0
2022-09-15T01:08:58.452Z,0
2022-09-15T01:09:38.956Z,0
2022-09-15T01:10:19.479Z,0
2022-09-15T01:10:59.997Z,0
2022-09-15T01:17:45.583Z,0
2022-09-15T01:18:26.084Z,0
2022-09-15T01:19:06.613Z,0
2022-09-15T01:19:47.108Z,0
2022-09-15T01:20:27.559Z,0
2022-09-15T01:21:48.537Z,0
2022-09-15T01:22:29.044Z,0
2022-09-15T01:23:09.594Z,0
2022-09-15T01:29:55.492Z,0
2022-09-15T01:30:36.025Z,0
2022-09-15T01:31:16.532Z,0
2022-09-15T01:31:57.034Z,0
2022-09-15T01:32:37.527Z,0
2022-09-15T01:33:18.013Z,0
2022-09-15T01:33:58.513Z,0
2022-09-15T01:34:39.050Z,0
2022-09-15T01:35:19.538Z,0
2022-09-15T01:36:00.042Z,0
2022-09-15T01:43:25.673Z,0
2022-09-15T01:44:06.127Z,0
2022-09-15T01:44:46.673Z,0
2022-09-15T01:45:27.192Z,0
2022-09-15T01:46:07.692Z,0
2022-09-15T01:46:48.203Z,0
2022-09-15T01:47:28.705Z,0
2022-09-15T01:48:09.257Z,0
2022-09-15T01:49:30.207Z,0
2022-09-15T01:56:55.688Z,0
2022-09-15T01:57:36.128Z,0
2022-09-15T01:58:16.644Z,0
2022-09-15T01:58:57.113Z,0
2022-09-15T01:59:37.639Z,0
2022-09-15T02:00:18.150Z,0
2022-09-15T02:00:58.718Z,0
2022-09-15T02:01:39.260Z,0
2022-09-15T02:02:19.702Z,0
2022-09-15T02:03:00.121Z,0
2022-09-15T02:10:16.736Z,0
2022-09-15T02:10:57.216Z,0
2022-09-15T02:11:37.751Z,0
2022-09-15T02:17:01.758Z,0
2022-09-15T02:17:42.198Z,0
2022-09-15T02:18:22.708Z,0
2022-09-15T02:19:03.250Z,0
2022-09-15T02:19:43.693Z,0
2022-09-15T02:20:24.231Z,0
2022-09-15T02:21:04.725Z,0
2022-09-15T02:21:45.217Z,0
2022-09-15T02:22:25.740Z,0
2022-09-15T02:23:06.252Z,0
2022-09-15T02:30:31.831Z,0
2022-09-15T02:31:12.384Z,0
2022-09-15T02:31:52.896Z,0
2022-09-15T02:32:33.321Z,0
2022-09-15T02:33:13.818Z,0
2022-09-15T02:33:54.267Z,0
2022-09-15T02:34:34.838Z,0
2022-09-15T02:35:15.197Z,0
2022-09-15T02:35:55.726Z,0
2022-09-15T02:36:36.213Z,0
2022-09-15T02:44:01.751Z,0
2022-09-15T02:44:42.283Z,0
2022-09-15T02:45:22.792Z,0
2022-09-15T02:46:03.339Z,0
2022-09-15T02:46:43.840Z,0
2022-09-15T02:47:24.257Z,0
2022-09-15T02:48:04.726Z,0
2022-09-15T02:48:45.237Z,0
2022-09-15T02:49:25.696Z,0
2022-09-15T02:56:11.366Z,0
2022-09-15T02:56:51.756Z,0
2022-09-15T02:57:32.291Z,0
2022-09-15T02:58:12.783Z,0
2022-09-15T02:58:53.307Z,0
2022-09-15T02:59:33.801Z,0
2022-09-15T03:00:14.312Z,0
2022-09-15T03:00:54.819Z,0
2022-09-15T03:01:35.344Z,0
2022-09-15T03:02:15.822Z,0
2022-09-15T03:02:56.373Z,0
2022-09-15T03:10:21.797Z,0
2022-09-15T03:11:02.254Z,0
2022-09-15T03:11:42.758Z,0
2022-09-15T03:12:23.223Z,0
2022-09-15T03:13:03.704Z,0
2022-09-15T03:13:44.182Z,0
2022-09-15T03:14:24.657Z,0
2022-09-15T03:15:05.197Z,0
2022-09-15T03:15:45.646Z,0
2022-09-15T03:16:26.202Z,0
2022-09-15T03:23:51.633Z,0
2022-09-15T03:24:32.046Z,0
2022-09-15T03:25:12.523Z,0
2022-09-15T03:25:53.087Z,0
2022-09-15T03:26:33.643Z,0
2022-09-15T03:27:14.078Z,0
2022-09-15T03:27:54.576Z,0
2022-09-15T03:28:35.066Z,0
2022-09-15T03:29:15.545Z,0
2022-09-15T03:29:56.035Z,0
2022-09-15T03:37:21.511Z,0
2022-09-15T03:38:01.922Z,0
2022-09-15T03:38:42.449Z,0
2022-09-15T03:39:22.974Z,0
2022-09-15T03:40:03.518Z,0
2022-09-15T03:40:44.674Z,0
2022-09-15T03:41:25.181Z,0
2022-09-15T03:42:05.690Z,0
2022-09-15T03:42:46.171Z,0
2022-09-15T03:49:22.114Z,0
2022-09-15T03:50:02.744Z,0
2022-09-15T03:50:43.137Z,0
2022-09-15T03:55:26.886Z,0
2022-09-15T03:56:07.355Z,0
2022-09-15T03:56:47.818Z,0
2022-09-15T03:57:28.345Z,0
2022-09-15T03:58:08.823Z,0
2022-09-15T03:58:49.339Z,0
2022-09-15T03:59:29.889Z,0
2022-09-15T04:00:10.336Z,0
2022-09-15T04:00:50.928Z,0
2022-09-15T04:01:31.384Z,0
2022-09-15T04:08:56.886Z,0
2022-09-15T04:09:37.422Z,0
2022-09-15T04:10:17.947Z,0
2022-09-15T04:10:58.455Z,0
2022-09-15T04:11:38.988Z,0
2022-09-15T04:12:19.439Z,0
2022-09-15T04:13:00.817Z,0
2022-09-15T04:13:41.301Z,0
2022-09-15T04:14:21.793Z,0
2022-09-15T04:21:07.109Z,0
2022-09-15T04:21:47.620Z,0
2022-09-15T04:22:28.166Z,0
2022-09-15T04:23:08.659Z,0
2022-09-15T04:23:49.102Z,0
2022-09-15T04:24:29.614Z,0
2022-09-15T04:25:10.201Z,0
2022-09-15T04:25:50.706Z,0
2022-09-15T04:26:31.225Z,0
2022-09-15T04:27:11.687Z,0
2022-09-15T04:34:41.183Z,0
2022-09-15T04:35:17.658Z,0
2022-09-15T04:35:58.216Z,0
2022-09-15T04:36:38.652Z,0
2022-09-15T04:37:19.202Z,0
2022-09-15T04:37:59.658Z,0
2022-09-15T04:38:40.214Z,0
2022-09-15T04:39:20.960Z,0
2022-09-15T04:40:01.550Z,0
2022-09-15T04:46:06.901Z,0
2022-09-15T04:46:47.395Z,0
2022-09-15T04:47:27.865Z,0
2022-09-15T04:48:08.351Z,0
2022-09-15T04:48:48.977Z,0
2022-09-15T04:49:29.345Z,0
2022-09-15T04:50:09.923Z,0
2022-09-15T04:50:50.399Z,0
2022-09-15T04:51:31.029Z,0
2022-09-15T04:52:11.537Z,0
2022-09-15T04:58:12.670Z,0
2022-09-15T04:58:53.223Z,0
2022-09-15T04:59:33.647Z,0
2022-09-15T05:04:17.282Z,0
2022-09-15T05:04:57.770Z,0
2022-09-15T05:05:38.325Z,0
2022-09-15T05:06:18.913Z,0
2022-09-15T05:06:59.435Z,0
2022-09-15T05:07:39.929Z,0
2022-09-15T05:08:20.439Z,0
2022-09-15T05:09:00.921Z,0
2022-09-15T05:09:41.547Z,0
2022-09-15T05:15:46.995Z,0
2022-09-15T05:16:27.561Z,0
2022-09-15T05:17:07.950Z,0
2022-09-15T05:17:48.905Z,0
2022-09-15T05:18:29.603Z,0
2022-09-15T05:19:10.701Z,0
2022-09-15T05:19:51.223Z,0
2022-09-15T05:26:36.978Z,0
2022-09-15T05:27:17.502Z,0
2022-09-15T05:27:58.124Z,0
2022-09-15T05:28:38.629Z,0
2022-09-15T05:29:19.173Z,0
2022-09-15T05:30:16.418Z,0
2022-09-15T05:30:43.706Z,0
2022-09-15T05:31:20.735Z,0
2022-09-15T05:32:01.950Z,0
2022-09-15T05:39:19.177Z,0
2022-09-15T05:39:59.942Z,0
2022-09-15T05:40:40.242Z,0
2022-09-15T05:45:23.881Z,0
2022-09-15T05:46:06.208Z,0
2022-09-15T05:46:46.784Z,5
2022-09-15T05:47:27.733Z,5
2022-09-15T05:48:08.217Z,5
2022-09-15T06:32:27.877Z,20
2022-09-15T06:33:08.545Z,20
2022-09-15T06:33:52.314Z,20
2022-09-15T06:34:33.323Z,25
2022-09-15T06:35:14.300Z,25
2022-09-15T06:35:55.348Z,25
2022-09-15T06:36:36.423Z,30
2022-09-15T06:40:01.798Z,40
2022-09-15T06:40:42.784Z,35
2022-09-15T06:41:26.552Z,40
2022-09-15T06:44:51.814Z,35
2022-09-15T06:45:32.794Z,40
2022-09-15T06:46:13.880Z,45
2022-09-15T06:46:54.796Z,40
2022-09-15T06:47:35.887Z,40
2022-09-15T06:51:42.253Z,65
2022-09-15T06:52:23.421Z,50
2022-09-15T06:53:04.730Z,60
2022-09-15T06:53:45.909Z,40
2022-09-15T06:57:52.950Z,40
2022-09-15T06:58:33.804Z,40
2022-09-15T06:59:14.979Z,45
2022-09-15T06:59:55.998Z,55
2022-09-15T07:04:02.510Z,50
2022-09-15T07:04:43.681Z,55
2022-09-15T07:05:24.664Z,60
2022-09-15T07:06:05.682Z,55
2022-09-15T07:10:12.152Z,45
2022-09-15T07:10:53.221Z,40
2022-09-15T07:11:34.182Z,40
2022-09-15T07:12:16.166Z,40
2022-09-15T07:12:56.208Z,40
2022-09-15T07:17:33.248Z,30
2022-09-15T07:18:14.382Z,35
2022-09-15T07:18:54.917Z,35
2022-09-15T07:19:35.488Z,35
2022-09-15T07:22:17.753Z,30
2022-09-15T07:22:58.247Z,30
2022-09-15T07:23:40.152Z,25
2022-09-15T07:24:20.773Z,30
2022-09-15T07:25:01.263Z,25
2022-09-15T07:25:41.862Z,30
2022-09-15T07:26:22.434Z,25
2022-09-15T07:33:48.176Z,15
2022-09-15T07:34:28.656Z,15
2022-09-15T07:35:09.175Z,20
2022-09-15T07:35:49.711Z,20
2022-09-15T07:36:30.360Z,20
2022-09-15T07:40:00.597Z,25
2022-09-15T07:40:40.950Z,25
2022-09-15T07:44:00.255Z,30
2022-09-15T07:44:41.663Z,30
2022-09-15T07:45:22.343Z,30
2022-09-15T07:46:02.869Z,30
2022-09-15T07:50:12.442Z,35
2022-09-15T07:50:52.807Z,40
2022-09-15T07:51:33.429Z,40
2022-09-15T07:52:14.740Z,40
2022-09-15T07:53:37.648Z,40
2022-09-15T07:54:22.076Z,40
2022-09-15T07:54:59.160Z,40
2022-09-15T07:55:39.868Z,40
2022-09-15T07:56:20.505Z,45
2022-09-15T07:57:01.066Z,40
2022-09-15T07:57:42.194Z,40
2022-09-15T08:03:47.486Z,35
2022-09-15T08:04:27.695Z,35
2022-09-15T08:05:09.134Z,35
2022-09-15T08:05:49.784Z,35
2022-09-15T08:06:32.780Z,35
2022-09-15T08:08:37.645Z,30
2022-09-15T08:09:18.243Z,30
2022-09-15T08:09:58.978Z,25
2022-09-15T08:10:39.446Z,25
2022-09-15T08:11:19.988Z,25
2022-09-15T08:12:00.559Z,25
2022-09-15T08:15:18.221Z,30
2022-09-15T08:15:59.111Z,35
2022-09-15T08:16:39.630Z,40
2022-09-15T08:20:43.123Z,40
2022-09-15T08:21:23.724Z,40
2022-09-15T08:25:05.374Z,35
2022-09-15T08:25:45.919Z,35
2022-09-15T08:26:27.282Z,35
2022-09-15T08:29:46.350Z,30
2022-09-15T08:30:27.119Z,30
2022-09-15T08:31:07.613Z,30
2022-09-15T08:35:02.239Z,20
2022-09-15T08:35:42.881Z,25
2022-09-15T08:36:23.352Z,30
2022-09-15T08:40:26.933Z,20
2022-09-15T08:41:07.450Z,20
2022-09-15T08:41:47.936Z,20
2022-09-15T08:42:28.597Z,20
2022-09-15T08:43:09.220Z,20
2022-09-15T08:43:49.748Z,25
2022-09-15T08:44:30.251Z,25
2022-09-15T08:45:10.858Z,30
2022-09-15T08:45:51.339Z,30
2022-09-15T08:52:36.871Z,30
2022-09-15T08:53:17.292Z,35
2022-09-15T08:53:57.826Z,35
2022-09-15T08:54:38.365Z,35
2022-09-15T08:55:18.915Z,40
2022-09-15T08:55:59.589Z,40
2022-09-15T08:56:39.963Z,40
2022-09-15T08:57:20.642Z,45
2022-09-15T08:58:01.224Z,45
2022-09-15T08:58:41.791Z,45
2022-09-15T09:04:07.116Z,55
2022-09-15T09:04:47.670Z,65
2022-09-15T09:05:28.220Z,50
2022-09-15T09:06:08.751Z,40
2022-09-15T09:06:49.389Z,40
2022-09-15T09:07:31.174Z,50
2022-09-15T09:12:17.363Z,45
2022-09-15T09:12:58.249Z,45
2022-09-15T09:13:39.112Z,45
2022-09-15T09:14:19.679Z,45
2022-09-15T09:15:00.430Z,45
2022-09-15T09:15:40.924Z,60
2022-09-15T09:21:46.854Z,55
2022-09-15T09:22:27.452Z,55
2022-09-15T09:23:08.032Z,50
2022-09-15T09:23:48.581Z,50
2022-09-15T09:24:29.276Z,45
2022-09-15T09:25:26.066Z,45
2022-09-15T09:25:50.204Z,45
2022-09-15T09:26:30.826Z,45
2022-09-15T09:27:11.254Z,45
2022-09-15T09:27:51.826Z,40
2022-09-15T09:32:27.906Z,30
2022-09-15T09:33:08.332Z,30
2022-09-15T09:33:48.932Z,35
2022-09-15T09:37:12.299Z,40
2022-09-15T09:37:52.869Z,40
2022-09-15T09:38:36.393Z,40
2022-09-15T09:42:32.797Z,50
2022-09-15T09:43:13.098Z,50
2022-09-15T09:43:53.722Z,60
2022-09-15T09:44:34.220Z,55
2022-09-15T09:47:16.876Z,55
2022-09-15T09:48:01.397Z,50
2022-09-15T09:48:38.103Z,45
2022-09-15T09:49:18.691Z,40
2022-09-15T09:49:59.302Z,40
2022-09-15T09:50:39.971Z,40
2022-09-15T09:51:20.695Z,40
2022-09-15T09:52:01.283Z,40
2022-09-15T09:58:46.764Z,50
2022-09-15T09:59:27.261Z,55
2022-09-15T10:00:07.848Z,55
2022-09-15T10:00:48.298Z,55
2022-09-15T10:01:28.883Z,55
2022-09-15T10:02:09.386Z,55
2022-09-15T10:02:49.947Z,55
2022-09-15T10:03:32.920Z,55
2022-09-15T10:04:11.064Z,55
2022-09-15T10:04:51.560Z,60
2022-09-15T10:10:56.758Z,40
2022-09-15T10:11:37.383Z,40
2022-09-15T10:12:18.046Z,40
2022-09-15T10:12:58.771Z,40
2022-09-15T10:13:39.535Z,40
2022-09-15T10:14:20.111Z,40
2022-09-15T10:15:00.613Z,40
2022-09-15T10:15:41.086Z,40
2022-09-15T10:16:21.689Z,40
2022-09-15T10:22:26.657Z,40
2022-09-15T10:23:47.780Z,40
2022-09-15T10:24:28.277Z,40
2022-09-15T10:25:08.786Z,40
2022-09-15T10:25:58.939Z,45
2022-09-15T10:26:29.887Z,40
2022-09-15T10:27:10.310Z,40
2022-09-15T10:27:50.812Z,40
2022-09-15T10:35:16.673Z,40
2022-09-15T10:35:57.106Z,35
2022-09-15T10:36:37.630Z,35
2022-09-15T10:37:18.191Z,35
2022-09-15T10:37:58.677Z,35
2022-09-15T10:38:40.682Z,35
2022-09-15T10:39:21.076Z,30
2022-09-15T10:45:27.147Z,40
2022-09-15T10:46:07.457Z,40
2022-09-15T10:46:47.838Z,40
2022-09-15T10:47:28.351Z,40
2022-09-15T10:48:08.853Z,40
2022-09-15T10:48:49.349Z,40
2022-09-15T10:49:29.893Z,40
2022-09-15T10:50:11.578Z,40
2022-09-15T10:50:51.737Z,35
2022-09-15T10:55:51.956Z,40
2022-09-15T10:56:18.100Z,40
2022-09-15T10:56:58.808Z,40
2022-09-15T10:57:39.306Z,40
2022-09-15T10:58:19.867Z,40
2022-09-15T10:59:00.767Z,40
2022-09-15T10:59:41.535Z,40
2022-09-15T11:05:06.930Z,40
2022-09-15T11:05:47.643Z,40
2022-09-15T11:06:28.256Z,40
2022-09-15T11:07:09.047Z,45
2022-09-15T11:07:49.585Z,45
2022-09-15T11:08:30.533Z,40
2022-09-15T11:09:11.289Z,40
2022-09-15T11:15:16.737Z,45
2022-09-15T11:15:57.470Z,45
2022-09-15T11:16:37.986Z,45
2022-09-15T11:17:18.588Z,45
2022-09-15T11:17:59.044Z,45
2022-09-15T11:18:39.544Z,45
2022-09-15T11:19:20.086Z,45
2022-09-15T11:20:00.634Z,45
2022-09-15T11:20:41.260Z,50
2022-09-15T11:26:06.821Z,45
2022-09-15T11:26:47.336Z,45
2022-09-15T11:27:27.880Z,45
2022-09-15T11:28:09.083Z,45
2022-09-15T11:28:49.655Z,45
2022-09-15T11:29:30.193Z,45
2022-09-15T11:30:10.873Z,45
2022-09-15T11:30:51.425Z,45
2022-09-15T11:36:16.767Z,45
2022-09-15T11:36:57.269Z,45
2022-09-15T11:37:38.826Z,45
2022-09-15T11:38:19.360Z,45
2022-09-15T11:39:00.007Z,45
2022-09-15T11:39:40.787Z,45
2022-09-15T11:40:21.258Z,45
2022-09-15T11:46:27.121Z,35
2022-09-15T11:47:06.794Z,35
2022-09-15T11:47:47.328Z,35
2022-09-15T11:48:27.840Z,35
2022-09-15T11:49:09.322Z,35
2022-09-15T11:49:49.798Z,35
2022-09-15T11:50:30.322Z,35
2022-09-15T11:51:10.836Z,35
2022-09-15T11:51:51.360Z,35
2022-09-15T12:32:31.070Z,40
2022-09-15T12:33:12.330Z,40
2022-09-15T12:33:53.470Z,40
2022-09-15T12:34:33.893Z,40
2022-09-15T12:37:15.937Z,40
2022-09-15T12:37:56.526Z,40
2022-09-15T12:38:37.056Z,40
2022-09-15T12:39:17.606Z,40
2022-09-15T12:39:58.863Z,40
2022-09-15T12:40:39.444Z,35
2022-09-15T12:41:19.913Z,35
2022-09-15T12:42:00.432Z,35
2022-09-15T12:48:06.067Z,40
2022-09-15T12:48:47.323Z,40
2022-09-15T12:49:28.038Z,35
2022-09-15T12:50:08.497Z,35
2022-09-15T12:50:49.146Z,35
2022-09-15T12:51:29.675Z,35
2022-09-15T12:56:32.992Z,35
2022-09-15T12:57:23.666Z,35
2022-09-15T12:59:41.812Z,30
2022-09-15T13:00:22.204Z,30
2022-09-15T13:01:17.452Z,30
2022-09-15T13:01:44.017Z,30
2022-09-15T13:05:06.692Z,25
2022-09-15T13:05:47.218Z,30
2022-09-15T13:06:27.931Z,30
2022-09-15T13:07:09.332Z,30
2022-09-15T13:07:49.084Z,25
2022-09-15T13:08:29.613Z,25
2022-09-15T13:09:10.121Z,30
2022-09-15T13:09:50.678Z,30
2022-09-15T13:10:31.205Z,30
2022-09-15T13:15:56.297Z,30
2022-09-15T13:16:36.779Z,30
2022-09-15T13:17:17.307Z,30
2022-09-15T13:17:57.835Z,30
2022-09-15T13:18:38.325Z,30
2022-09-15T13:19:18.909Z,30
2022-09-15T13:19:59.391Z,30
2022-09-15T13:20:39.915Z,30
2022-09-15T13:21:20.415Z,30
2022-09-15T13:22:00.986Z,30
2022-09-15T13:28:37.879Z,25
2022-09-15T13:35:16.471Z,25
2022-09-15T13:35:50.626Z,20
2022-09-15T13:38:09.396Z,20
2022-09-15T13:41:09.749Z,15
2022-09-15T13:41:50.483Z,15
2022-09-15T13:42:30.964Z,15
2022-09-15T13:45:40.986Z,15
2022-09-15T13:46:21.532Z,15
2022-09-15T13:47:01.994Z,15
2022-09-15T13:50:56.308Z,15
2022-09-15T13:51:37.029Z,15
2022-09-15T13:52:18.091Z,15
2022-09-15T13:53:41.288Z,20
2022-09-15T13:57:00.287Z,20
2022-09-15T13:59:07.958Z,20
2022-09-15T14:03:45.451Z,15
2022-09-15T14:04:26.034Z,15
2022-09-15T14:05:06.581Z,15
2022-09-15T14:08:09.574Z,15
2022-09-15T14:08:55.712Z,15
2022-09-15T14:09:46.419Z,15
2022-09-15T14:10:34.826Z,15
2022-09-15T14:11:24.129Z,15
2022-09-15T14:12:12.869Z,15
2022-09-15T14:13:04.950Z,15
2022-09-15T14:14:00.606Z,15
2022-09-15T14:16:24.162Z,15
2022-09-15T14:17:04.968Z,10
2022-09-15T14:17:46.024Z,10
2022-09-15T14:19:08.185Z,10
2022-09-15T14:19:49.102Z,10
2022-09-15T14:20:30.065Z,10
2022-09-15T14:21:11.195Z,10
2022-09-15T14:21:55.011Z,10
2022-09-15T14:25:59.067Z,15
2022-09-15T14:26:41.067Z,15
2022-09-15T14:27:22.152Z,15
2022-09-15T14:30:08.627Z,15
2022-09-15T14:30:49.768Z,15
2022-09-15T14:31:30.887Z,15
2022-09-15T14:32:11.985Z,15
2022-09-15T14:32:53.114Z,15
2022-09-15T14:36:18.597Z,10
2022-09-15T14:36:59.557Z,10
2022-09-15T14:37:40.725Z,10
2022-09-15T14:38:21.646Z,10
2022-09-15T14:39:02.622Z,5
2022-09-15T14:43:08.794Z,5
2022-09-15T14:43:49.986Z,5
2022-09-15T14:49:18.861Z,0
2022-09-15T14:49:59.951Z,0
2022-09-15T14:51:21.956Z,0
2022-09-15T14:52:03.106Z,0
2022-09-15T14:55:28.346Z,0
2022-09-15T14:56:09.272Z,0
2022-09-15T14:56:50.523Z,0
2022-09-15T14:57:31.763Z,0
2022-09-15T14:58:12.768Z,5
2022-09-15T15:01:38.591Z,5
2022-09-15T15:02:19.659Z,5
2022-09-15T15:03:00.906Z,5
2022-09-15T15:03:42.048Z,5
2022-09-15T15:07:16.741Z,5
2022-09-15T15:07:57.256Z,5
2022-09-15T15:08:37.824Z,5
2022-09-15T15:09:18.288Z,5
2022-09-15T15:12:01.619Z,5
2022-09-15T15:12:42.226Z,5
2022-09-15T15:13:22.769Z,5
2022-09-15T15:14:03.554Z,5
2022-09-15T15:14:44.069Z,5
2022-09-15T15:15:24.626Z,5
2022-09-15T15:16:05.816Z,5
2022-09-15T15:26:05.744Z,5
2022-09-15T15:26:46.532Z,5
2022-09-15T15:27:27.125Z,5
2022-09-15T15:28:07.595Z,5
2022-09-15T15:28:48.141Z,5
2022-09-15T15:29:28.696Z,5
2022-09-15T15:30:09.192Z,5
2022-09-15T15:30:49.970Z,5
2022-09-15T15:31:30.899Z,5
2022-09-15T15:32:11.376Z,5
2022-09-15T15:32:51.970Z,5
2022-09-15T15:33:32.487Z,5
2022-09-15T15:40:26.149Z,5
2022-09-15T15:41:06.702Z,5
2022-09-15T15:42:27.642Z,5
2022-09-15T15:43:08.262Z,5
2022-09-15T15:43:48.759Z,5
2022-09-15T15:44:29.378Z,5
2022-09-15T15:45:09.901Z,5
2022-09-15T15:45:50.624Z,5
2022-09-15T15:46:31.082Z,5
2022-09-15T15:50:41.942Z,5
2022-09-15T15:51:22.227Z,5
2022-09-15T15:52:03.005Z,5
2022-09-15T16:01:27.411Z,5
2022-09-15T16:02:07.730Z,5
2022-09-15T16:02:49.062Z,5
2022-09-15T16:09:04.622Z,5
2022-09-15T16:09:44.826Z,5
2022-09-15T16:10:25.328Z,5
2022-09-15T16:13:48.846Z,5
2022-09-15T16:14:29.466Z,5
2022-09-15T16:15:09.916Z,5
2022-09-15T16:15:50.483Z,5
2022-09-15T16:16:30.981Z,5
2022-09-15T16:17:11.507Z,5
2022-09-15T16:17:52.117Z,5
2022-09-15T16:18:32.537Z,5
2022-09-15T16:19:13.112Z,5
2022-09-15T16:19:53.575Z,5
2022-09-15T16:25:59.262Z,5
2022-09-15T16:26:39.708Z,5
2022-09-15T16:27:20.606Z,5
2022-09-15T16:28:01.778Z,5
2022-09-15T16:28:42.557Z,5
2022-09-15T16:29:23.143Z,5
2022-09-15T16:30:03.781Z,5
2022-09-15T16:35:28.961Z,5
2022-09-15T16:36:09.735Z,5
2022-09-15T16:36:50.236Z,5
2022-09-15T16:37:30.836Z,5
2022-09-15T16:38:11.346Z,5
2022-09-15T16:38:51.854Z,5
2022-09-15T16:39:32.389Z,5
2022-09-15T16:40:13.115Z,5
2022-09-15T16:40:53.735Z,5
2022-09-15T16:46:18.879Z,0
2022-09-15T16:46:59.478Z,0
2022-09-15T16:47:39.966Z,0
2022-09-15T16:48:21.332Z,0
2022-09-15T16:49:02.169Z,0
2022-09-15T16:49:43.126Z,0
2022-09-15T16:50:23.640Z,0
2022-09-15T16:54:28.677Z,0
2022-09-15T16:55:09.216Z,0
2022-09-15T16:55:49.742Z,0
2022-09-15T16:56:30.284Z,0
2022-09-15T16:57:10.728Z,0
2022-09-15T16:57:51.524Z,0
2022-09-15T16:58:32.194Z,0
2022-09-15T16:59:12.721Z,0
2022-09-15T16:59:53.265Z,0
2022-09-15T17:06:40.157Z,0
2022-09-15T17:07:20.689Z,0
2022-09-15T17:08:01.160Z,0
2022-09-15T17:08:41.907Z,0
2022-09-15T17:09:22.129Z,0
2022-09-15T17:10:02.730Z,0
2022-09-15T17:10:43.550Z,0
2022-09-15T17:17:28.751Z,0
2022-09-15T17:18:09.393Z,0
2022-09-15T17:18:49.997Z,0
2022-09-15T17:19:30.737Z,0
2022-09-15T17:20:11.256Z,0
2022-09-15T17:20:51.934Z,0
2022-09-15T17:21:32.425Z,0
2022-09-15T17:22:13.193Z,0
2022-09-15T17:22:53.681Z,0
2022-09-15T17:29:38.969Z,0
2022-09-15T17:30:19.474Z,0
2022-09-15T17:30:59.985Z,0
2022-09-15T17:31:40.625Z,0
2022-09-15T17:32:20.955Z,0
2022-09-15T17:33:01.437Z,0
2022-09-15T17:33:41.972Z,0
2022-09-15T17:34:22.508Z,0
2022-09-15T17:35:02.998Z,0
2022-09-15T17:35:43.761Z,0
2022-09-15T17:38:28.892Z,0
2022-09-15T17:39:09.403Z,0
2022-09-15T17:39:50.227Z,0
2022-09-15T17:40:30.524Z,0
2022-09-15T17:41:11.018Z,0
2022-09-15T17:41:51.494Z,0
2022-09-15T17:42:31.990Z,0
2022-09-15T17:43:12.474Z,0
2022-09-15T17:43:53.073Z,0
2022-09-15T17:44:35.584Z,0
2022-09-15T17:51:50.909Z,0
2022-09-15T17:52:34.603Z,0
2022-09-15T17:53:12.752Z,0
2022-09-15T17:53:53.189Z,0
2022-09-15T18:34:13.445Z,0
2022-09-15T18:34:53.793Z,0
2022-09-15T18:35:34.318Z,0
2022-09-15T18:42:36.099Z,0
2022-09-15T18:43:16.609Z,0
2022-09-15T18:43:57.118Z,0
2022-09-15T18:44:37.633Z,0
2022-09-15T18:48:40.823Z,0
2022-09-15T18:49:21.391Z,0
2022-09-15T18:50:01.890Z,0
2022-09-15T18:50:42.375Z,0
2022-09-15T18:51:29.006Z,0
2022-09-15T18:52:03.542Z,0
2022-09-15T18:52:44.060Z,0
2022-09-15T18:53:24.522Z,0
2022-09-15T18:54:05.076Z,0
2022-09-15T18:54:45.679Z,0
2022-09-15T19:01:31.048Z,0
2022-09-15T19:02:11.636Z,0
2022-09-15T19:02:51.990Z,0
2022-09-15T19:03:32.547Z,0
2022-09-15T19:04:12.980Z,0
2022-09-15T19:04:53.481Z,0
2022-09-15T19:05:33.941Z,0
2022-09-15T19:06:14.466Z,0
2022-09-15T19:06:55.037Z,0
2022-09-15T19:07:35.544Z,0
2022-09-15T19:15:01.054Z,0
2022-09-15T19:15:41.607Z,0
2022-09-15T19:16:22.878Z,0
2022-09-15T19:17:02.547Z,0
2022-09-15T19:17:43.001Z,0
2022-09-15T19:18:23.525Z,0
2022-09-15T19:19:03.977Z,0
2022-09-15T19:19:44.462Z,0
2022-09-15T19:20:24.973Z,0
2022-09-15T19:21:05.442Z,0
2022-09-15T19:28:31.183Z,0
2022-09-15T19:29:12.026Z,0
2022-09-15T19:29:52.575Z,0
2022-09-15T19:30:33.122Z,0
2022-09-15T19:31:14.089Z,0
2022-09-15T19:31:54.515Z,0
2022-09-15T19:32:34.991Z,0
2022-09-15T19:33:15.484Z,0
2022-09-15T19:40:41.019Z,0
2022-09-15T19:41:21.462Z,0
2022-09-15T19:42:02.046Z,0
2022-09-15T19:42:42.475Z,0
2022-09-15T19:43:22.949Z,0
2022-09-15T19:44:03.430Z,0
2022-09-15T19:44:43.911Z,0
2022-09-15T19:45:24.359Z,0
2022-09-15T19:46:05.034Z,0
2022-09-15T19:46:45.460Z,0
2022-09-15T19:54:11.113Z,0
2022-09-15T19:54:51.669Z,0
2022-09-15T19:55:32.161Z,0
2022-09-15T19:56:12.650Z,0
2022-09-15T19:56:53.117Z,0
2022-09-15T19:57:33.644Z,0
2022-09-15T19:58:14.094Z,0
2022-09-15T19:58:54.732Z,0
2022-09-15T19:59:35.064Z,0
2022-09-15T20:00:15.558Z,0
2022-09-15T20:07:00.776Z,0
2022-09-15T20:07:41.227Z,0
2022-09-15T20:08:21.751Z,0
2022-09-15T20:09:02.200Z,0
2022-09-15T20:09:42.683Z,0
2022-09-15T20:10:23.156Z,0
2022-09-15T20:11:03.704Z,0
2022-09-15T20:11:44.183Z,0
2022-09-15T20:12:24.726Z,0
2022-09-15T20:13:05.197Z,0
2022-09-15T20:13:45.740Z,0
2022-09-15T20:21:17.979Z,0
2022-09-15T20:21:51.847Z,0
2022-09-15T20:22:32.110Z,0
2022-09-15T20:23:12.598Z,0
2022-09-15T20:23:53.204Z,0
2022-09-15T20:25:14.091Z,0
2022-09-15T20:25:54.629Z,0
2022-09-15T20:26:35.176Z,0
2022-09-15T20:27:15.619Z,0
2022-09-15T20:31:10.887Z,0
2022-09-15T20:31:51.305Z,0
2022-09-15T20:32:32.244Z,0
2022-09-15T20:36:35.513Z,0
2022-09-15T20:37:16.359Z,0
2022-09-15T20:37:56.484Z,0
2022-09-15T20:38:37.036Z,0
2022-09-15T20:39:17.556Z,0
2022-09-15T20:39:58.245Z,0
2022-09-15T20:43:43.838Z,0
2022-09-15T20:44:31.609Z,0
2022-09-15T20:45:18.587Z,0
2022-09-15T20:46:00.166Z,0
2022-09-15T20:46:40.521Z,0
2022-09-15T20:52:04.333Z,0
2022-09-15T20:52:44.808Z,0
2022-09-15T20:53:25.285Z,0
2022-09-15T20:54:05.815Z,0
2022-09-15T20:54:46.252Z,0
2022-09-15T20:55:26.713Z,0
2022-09-15T20:56:07.234Z,0
2022-09-15T20:56:47.712Z,0
2022-09-15T20:57:28.157Z,0
2022-09-15T20:58:08.688Z,0
2022-09-15T20:58:49.103Z,0
2022-09-15T21:06:14.354Z,0
2022-09-15T21:06:54.834Z,0
2022-09-15T21:07:35.289Z,0
2022-09-15T21:08:15.771Z,0
2022-09-15T21:08:56.282Z,0
2022-09-15T21:09:36.695Z,0
2022-09-15T21:10:17.172Z,0
2022-09-15T21:11:38.181Z,0
2022-09-15T21:12:18.722Z,0
2022-09-15T21:20:24.462Z,0
2022-09-15T21:21:04.906Z,0
2022-09-15T21:21:45.377Z,0
2022-09-15T21:22:25.846Z,0
2022-09-15T21:23:06.310Z,0
2022-09-15T21:23:46.883Z,0
2022-09-15T21:24:27.599Z,0
2022-09-15T21:25:08.474Z,0
2022-09-15T21:29:54.438Z,0
2022-09-15T21:30:34.867Z,0
2022-09-15T21:31:15.420Z,0
2022-09-15T21:31:56.038Z,0
2022-09-15T21:32:36.403Z,0
2022-09-15T21:33:16.799Z,0
2022-09-15T21:33:57.277Z,0
2022-09-15T21:34:37.782Z,0
2022-09-15T21:35:18.268Z,0
2022-09-15T21:35:58.720Z,0
2022-09-15T21:44:04.352Z,0
2022-09-15T21:44:44.816Z,0
2022-09-15T21:45:25.322Z,0
2022-09-15T21:46:05.806Z,0
2022-09-15T21:46:46.266Z,0
2022-09-15T21:47:26.706Z,0
2022-09-15T21:48:07.195Z,0
2022-09-15T21:49:28.160Z,0
2022-09-15T21:50:08.653Z,0
2022-09-15T21:50:49.127Z,0
2022-09-15T21:58:14.355Z,0
2022-09-15T21:58:54.846Z,0
2022-09-15T21:59:35.251Z,0
2022-09-15T22:00:15.723Z,0
2022-09-15T22:00:56.320Z,0
2022-09-15T22:01:36.726Z,0
2022-09-15T22:02:17.300Z,0
2022-09-15T22:02:57.701Z,0
2022-09-15T22:03:38.145Z,0
2022-09-15T22:04:18.620Z,0
2022-09-15T22:04:59.196Z,0
2022-09-15T22:12:24.431Z,0
2022-09-15T22:13:04.889Z,0
2022-09-15T22:13:45.360Z,0
2022-09-15T22:14:25.855Z,0
2022-09-15T22:15:06.343Z,0
2022-09-15T22:15:46.831Z,0
2022-09-15T22:16:27.333Z,0
2022-09-15T22:17:07.764Z,0
2022-09-15T22:17:48.228Z,0
2022-09-15T22:18:28.679Z,0
2022-09-15T22:25:16.506Z,0
2022-09-15T22:25:54.889Z,0
2022-09-15T22:26:35.447Z,0
2022-09-15T22:27:15.837Z,0
2022-09-15T22:27:56.340Z,0
2022-09-15T22:28:36.813Z,0
2022-09-15T22:29:57.783Z,0
2022-09-15T22:30:38.364Z,0
2022-09-15T22:31:18.891Z,0
2022-09-15T22:38:44.241Z,0
2022-09-15T22:39:38.639Z,0